Details From EGNM - Leeds Bradford
To EGHI - Southampton
Flight Number -
Tags generated
Created
Modified
Stats Distance 176 nm / 325 km
Max Altitude 5,000 ft / 1,524 m
Waypoints 3
Social Downloads 0
Likes 0
Share VATSIM

Download

Looking for another format? Having issues loading an existing format? Contact us
Advertisement - Login to hide

Notes

Basic altitude profile: - Ascent Rate: 700ft/min - Ascent Speed: 70kts - Cruise Altitude: 3000 - Cruise Speed: 110kts - Descent Rate: 700ft/min - Descent Speed: 100kts

Route

EGNM HON16 EGHI

ID Type Via Altitude Latitude Longitude Leg Dist Tot Dist Heading (true) Name
O EGNM APT - 0 ft / 0 m 53.86603˚ -1.66078˚ - 0 nm - Leeds Bradford
HON16 FIX - 5,000 ft / 1,524 m 52.09750˚ -1.52889˚ 106 nm 106 nm 177° / 177° -
O EGHI APT - 0 ft / 0 m 50.95026˚ -1.35681˚ 69 nm 175 nm 175° / 175° Southampton

Altitude Profile

Advertisement - Login to hide

Weather


0- 5 10 15 20 25 30 35+ Temperature / ° C

Clouds and Precipitation
Forecast for 2018-05-20 18:00 UTC. Updated 5 hours ago

Ground ~20,000 ft ~40,000 ft Winds

EGNM

Details ICAO EGNM (LBA)
Name Leeds Bradford
Region United Kingdom
Timezone Europe/London (UTC+1.0)
Stats Elevation 681 ft / 208 m (AMSL)
Location 53.866027° -1.660778°
Runways 1
Magnetic Variation 1.230° W

METAR

EGNM 202150Z 14009KT CAVOK 14/11 Q1020

Decode

TAF

TAF EGNM 201700Z 2018/2118 15005KT 9999 FEW040 BECMG 2100/2103 7000 PROB30 2103/2108 0600 BCFG BKN001 BECMG 2107/2110 9999 PROB40 2112/2118 08010KT

Decode

Departure Runways

ID Width Length Bearing (true) Bearing (mag) Surface Threshold Offset Overrun Length
14 151 ft / 46 m 7,377 ft / 2,248 m 137.79° 139.02° Concrete 1,024 ft / 312 m 46 ft / 14 m
32 151 ft / 46 m 7,377 ft / 2,248 m 317.81° 319.04° Concrete 899 ft / 274 m 49 ft / 15 m

EGHI

Details ICAO EGHI (SOU)
Name Southampton
Region United Kingdom
Timezone Europe/London (UTC+1.0)
Stats Elevation 44 ft / 13 m (AMSL)
Location 50.950255° -1.356806°
Runways 1
Magnetic Variation 0.750° W

METAR

EGHI 202120Z 00000KT CAVOK 11/09 Q1019

Decode

TAF

Not found

Destination Runways

ID Width Length Bearing (true) Bearing (mag) Surface Threshold Offset Overrun Length
02 121 ft / 37 m 5,650 ft / 1,722 m 19.33° 20.08° Asphalt 240 ft / 73 m 0 ft / 0 m
20 121 ft / 37 m 5,650 ft / 1,722 m 199.34° 200.09° Asphalt 144 ft / 44 m 0 ft / 0 m

Approach Navaids

Runway Type Ident Frequency Range Bearing (true) Bearing (mag) Slope Elevation
20 Localiser ISN 110.75 MHz 18 nm / 33 km 199.34° 200.09° - 44 ft / 13 m (AMSL)
20 Glidescope ISN 110.75 MHz 10 nm / 19 km 199.34° 200.09° 3.10° 44 ft / 13 m (AMSL)
20 DME ISN 110.75 MHz 18 nm / 33 km - - - 54 ft / 16 m (AMSL)

Popular Alternatives